sensor_id;sensor_type;location;lat;lon;timestamp;P1;durP1;ratioP1;P2;durP2;ratioP2
77821;SDS011;67012;53.712;10.728;2023-02-28T08:51:41;3.10;;;1.80;;
77821;SDS011;67012;53.712;10.728;2023-02-28T08:54:07;3.63;;;1.60;;
77821;SDS011;67012;53.712;10.728;2023-02-28T08:56:32;2.35;;;1.60;;
77821;SDS011;67012;53.712;10.728;2023-02-28T08:58:57;1.63;;;1.47;;
77821;SDS011;67012;53.712;10.728;2023-02-28T09:01:27;5.40;;;2.50;;
77821;SDS011;67012;53.712;10.728;2023-02-28T09:06:23;2.85;;;2.00;;
77821;SDS011;67012;53.712;10.728;2023-02-28T09:08:48;2.13;;;1.75;;
77821;SDS011;67012;53.712;10.728;2023-02-28T09:11:14;3.22;;;2.00;;
77821;SDS011;67012;53.712;10.728;2023-02-28T09:13:39;3.50;;;2.13;;
77821;SDS011;67012;53.712;10.728;2023-02-28T09:16:06;4.18;;;1.70;;
77821;SDS011;67012;53.712;10.728;2023-02-28T09:18:33;4.18;;;1.85;;
77821;SDS011;67012;53.712;10.728;2023-02-28T09:20:58;3.08;;;1.38;;
77821;SDS011;67012;53.712;10.728;2023-02-28T09:23:23;4.73;;;2.07;;
77821;SDS011;67012;53.712;10.728;2023-02-28T09:25:49;2.88;;;1.38;;
77821;SDS011;67012;53.712;10.728;2023-02-28T09:28:15;2.13;;;1.10;;
77821;SDS011;67012;53.712;10.728;2023-02-28T09:30:41;2.28;;;1.30;;
77821;SDS011;67012;53.712;10.728;2023-02-28T09:33:06;4.93;;;1.43;;
77821;SDS011;67012;53.712;10.728;2023-02-28T09:35:32;4.30;;;1.60;;
77821;SDS011;67012;53.712;10.728;2023-02-28T09:37:57;2.70;;;0.97;;
77821;SDS011;67012;53.712;10.728;2023-02-28T09:40:23;2.10;;;1.20;;
77821;SDS011;67012;53.712;10.728;2023-02-28T09:42:49;1.45;;;1.35;;
77821;SDS011;67012;53.712;10.728;2023-02-28T09:45:20;2.45;;;1.30;;
77821;SDS011;67012;53.712;10.728;2023-02-28T09:47:47;1.35;;;1.25;;
77821;SDS011;67012;53.712;10.728;2023-02-28T09:52:58;0.82;;;0.60;;
77821;SDS011;67012;53.712;10.728;2023-02-28T09:55:57;0.68;;;0.63;;
77821;SDS011;67012;53.712;10.728;2023-02-28T09:58:16;1.58;;;0.93;;
77821;SDS011;67012;53.712;10.728;2023-02-28T10:00:44;1.55;;;1.27;;
77821;SDS011;67012;53.712;10.728;2023-02-28T10:05:53;1.97;;;1.10;;
77821;SDS011;67012;53.712;10.728;2023-02-28T10:08:21;1.92;;;1.60;;
77821;SDS011;67012;53.712;10.728;2023-02-28T10:10:51;4.72;;;3.83;;
77821;SDS011;67012;53.712;10.728;2023-02-28T10:14:19;5.55;;;2.47;;
77821;SDS011;67012;53.712;10.728;2023-02-28T10:16:15;2.22;;;1.70;;
77821;SDS011;67012;53.712;10.728;2023-02-28T10:21:09;2.40;;;1.63;;
77821;SDS011;67012;53.712;10.728;2023-02-28T10:23:38;4.47;;;2.92;;
77821;SDS011;67012;53.712;10.728;2023-02-28T10:26:13;2.73;;;2.20;;
77821;SDS011;67012;53.712;10.728;2023-02-28T10:28:40;3.25;;;1.27;;
77821;SDS011;67012;53.712;10.728;2023-02-28T10:31:06;1.87;;;1.27;;
77821;SDS011;67012;53.712;10.728;2023-02-28T10:33:34;2.55;;;1.30;;
77821;SDS011;67012;53.712;10.728;2023-02-28T10:36:00;4.90;;;2.28;;
77821;SDS011;67012;53.712;10.728;2023-02-28T10:41:04;2.28;;;1.83;;
77821;SDS011;67012;53.712;10.728;2023-02-28T10:43:29;8.43;;;5.72;;
77821;SDS011;67012;53.712;10.728;2023-02-28T10:48:27;2.25;;;2.05;;
77821;SDS011;67012;53.712;10.728;2023-02-28T10:50:54;3.35;;;1.80;;
77821;SDS011;67012;53.712;10.728;2023-02-28T10:58:29;3.05;;;2.10;;
77821;SDS011;67012;53.712;10.728;2023-02-28T11:00:54;3.67;;;2.05;;
77821;SDS011;67012;53.712;10.728;2023-02-28T11:03:38;2.13;;;1.60;;
77821;SDS011;67012;53.712;10.728;2023-02-28T11:06:22;3.88;;;1.52;;
77821;SDS011;67012;53.712;10.728;2023-02-28T11:08:49;3.85;;;1.83;;
77821;SDS011;67012;53.712;10.728;2023-02-28T11:11:16;2.95;;;1.40;;
77821;SDS011;67012;53.712;10.728;2023-02-28T11:13:42;1.85;;;1.50;;
77821;SDS011;67012;53.712;10.728;2023-02-28T11:16:09;2.92;;;1.73;;
77821;SDS011;67012;53.712;10.728;2023-02-28T11:18:40;2.13;;;1.50;;
77821;SDS011;67012;53.712;10.728;2023-02-28T11:21:06;2.00;;;1.50;;
77821;SDS011;67012;53.712;10.728;2023-02-28T11:23:33;3.10;;;1.60;;
77821;SDS011;67012;53.712;10.728;2023-02-28T11:26:00;2.28;;;1.25;;
77821;SDS011;67012;53.712;10.728;2023-02-28T11:28:31;3.17;;;2.20;;
77821;SDS011;67012;53.712;10.728;2023-02-28T11:33:29;2.60;;;1.38;;
77821;SDS011;67012;53.712;10.728;2023-02-28T11:36:08;1.65;;;1.48;;
77821;SDS011;67012;53.712;10.728;2023-02-28T11:38:34;2.05;;;1.42;;
77821;SDS011;67012;53.712;10.728;2023-02-28T11:46:01;3.33;;;1.20;;
77821;SDS011;67012;53.712;10.728;2023-02-28T11:48:41;1.33;;;1.23;;
77821;SDS011;67012;53.712;10.728;2023-02-28T11:58:42;2.72;;;1.40;;
77821;SDS011;67012;53.712;10.728;2023-02-28T12:06:28;2.05;;;1.40;;
77821;SDS011;67012;53.712;10.728;2023-02-28T12:09:08;1.98;;;1.17;;
77821;SDS011;67012;53.712;10.728;2023-02-28T12:26:53;2.67;;;1.40;;
77821;SDS011;67012;53.712;10.728;2023-02-28T12:29:29;1.13;;;1.00;;
77821;SDS011;67012;53.712;10.728;2023-02-28T12:31:58;2.35;;;1.10;;
77821;SDS011;67012;53.712;10.728;2023-02-28T12:37:21;1.00;;;0.95;;
77821;SDS011;67012;53.712;10.728;2023-02-28T12:39:48;3.08;;;1.25;;
77821;SDS011;67012;53.712;10.728;2023-02-28T12:42:24;1.92;;;1.30;;
77821;SDS011;67012;53.712;10.728;2023-02-28T12:44:52;1.42;;;0.90;;
77821;SDS011;67012;53.712;10.728;2023-02-28T12:47:19;1.38;;;1.05;;
77821;SDS011;67012;53.712;10.728;2023-02-28T12:49:45;2.87;;;1.03;;
77821;SDS011;67012;53.712;10.728;2023-02-28T12:52:13;1.33;;;0.80;;
77821;SDS011;67012;53.712;10.728;2023-02-28T12:54:47;1.15;;;0.95;;
77821;SDS011;67012;53.712;10.728;2023-02-28T12:59:51;2.10;;;0.77;;
77821;SDS011;67012;53.712;10.728;2023-02-28T13:07:38;1.00;;;0.95;;
77821;SDS011;67012;53.712;10.728;2023-02-28T13:12:32;0.95;;;0.93;;
77821;SDS011;67012;53.712;10.728;2023-02-28T13:15:05;1.10;;;0.77;;
77821;SDS011;67012;53.712;10.728;2023-02-28T13:17:31;1.75;;;1.00;;
77821;SDS011;67012;53.712;10.728;2023-02-28T13:19:57;1.80;;;1.00;;
77821;SDS011;67012;53.712;10.728;2023-02-28T13:22:42;1.58;;;1.00;;
77821;SDS011;67012;53.712;10.728;2023-02-28T13:27:53;2.30;;;1.20;;
77821;SDS011;67012;53.712;10.728;2023-02-28T13:38:33;1.33;;;0.88;;
77821;SDS011;67012;53.712;10.728;2023-02-28T13:46:27;1.73;;;0.77;;
77821;SDS011;67012;53.712;10.728;2023-02-28T13:48:52;0.73;;;0.70;;
77821;SDS011;67012;53.712;10.728;2023-02-28T13:51:28;2.43;;;0.80;;
77821;SDS011;67012;53.712;10.728;2023-02-28T13:54:00;3.03;;;1.17;;
77821;SDS011;67012;53.712;10.728;2023-02-28T13:56:31;1.88;;;0.63;;
77821;SDS011;67012;53.712;10.728;2023-02-28T13:59:07;1.33;;;0.80;;
77821;SDS011;67012;53.712;10.728;2023-02-28T14:01:42;1.33;;;0.60;;
77821;SDS011;67012;53.712;10.728;2023-02-28T14:04:13;1.08;;;0.80;;
77821;SDS011;67012;53.712;10.728;2023-02-28T14:06:45;1.17;;;0.65;;
77821;SDS011;67012;53.712;10.728;2023-02-28T14:11:48;1.98;;;0.82;;
77821;SDS011;67012;53.712;10.728;2023-02-28T14:16:58;1.42;;;0.90;;
77821;SDS011;67012;53.712;10.728;2023-02-28T14:19:27;1.27;;;0.63;;
77821;SDS011;67012;53.712;10.728;2023-02-28T14:37:30;0.75;;;0.75;;
77821;SDS011;67012;53.712;10.728;2023-02-28T14:39:57;1.05;;;0.80;;
77821;SDS011;67012;53.712;10.728;2023-02-28T14:42:34;1.58;;;0.95;;
77821;SDS011;67012;53.712;10.728;2023-02-28T14:44:59;0.77;;;0.70;;
77821;SDS011;67012;53.712;10.728;2023-02-28T14:47:28;0.70;;;0.68;;
77821;SDS011;67012;53.712;10.728;2023-02-28T14:49:55;1.20;;;1.10;;
77821;SDS011;67012;53.712;10.728;2023-02-28T14:52:23;1.95;;;0.77;;
77821;SDS011;67012;53.712;10.728;2023-02-28T14:54:55;2.53;;;1.23;;
77821;SDS011;67012;53.712;10.728;2023-02-28T14:57:26;3.63;;;1.05;;
77821;SDS011;67012;53.712;10.728;2023-02-28T15:02:30;1.63;;;0.88;;
77821;SDS011;67012;53.712;10.728;2023-02-28T15:05:00;1.80;;;1.05;;
77821;SDS011;67012;53.712;10.728;2023-02-28T15:07:25;2.17;;;1.02;;
77821;SDS011;67012;53.712;10.728;2023-02-28T15:12:18;2.10;;;1.30;;
77821;SDS011;67012;53.712;10.728;2023-02-28T15:14:44;2.08;;;0.70;;
77821;SDS011;67012;53.712;10.728;2023-02-28T15:17:11;1.27;;;0.83;;
77821;SDS011;67012;53.712;10.728;2023-02-28T15:19:41;1.20;;;0.77;;
77821;SDS011;67012;53.712;10.728;2023-02-28T15:22:14;1.55;;;0.95;;
77821;SDS011;67012;53.712;10.728;2023-02-28T15:24:45;2.53;;;1.23;;
77821;SDS011;67012;53.712;10.728;2023-02-28T15:27:21;2.25;;;0.90;;
77821;SDS011;67012;53.712;10.728;2023-02-28T15:29:51;2.55;;;1.27;;
77821;SDS011;67012;53.712;10.728;2023-02-28T15:32:26;2.03;;;1.20;;
77821;SDS011;67012;53.712;10.728;2023-02-28T15:34:51;2.42;;;1.20;;
77821;SDS011;67012;53.712;10.728;2023-02-28T15:39:51;3.72;;;1.23;;
77821;SDS011;67012;53.712;10.728;2023-02-28T15:42:18;1.27;;;1.05;;
77821;SDS011;67012;53.712;10.728;2023-02-28T15:44:43;2.58;;;1.30;;
77821;SDS011;67012;53.712;10.728;2023-02-28T15:47:27;1.23;;;1.10;;
77821;SDS011;67012;53.712;10.728;2023-02-28T15:52:21;1.95;;;0.95;;
77821;SDS011;67012;53.712;10.728;2023-02-28T15:54:49;1.70;;;1.08;;
77821;SDS011;67012;53.712;10.728;2023-02-28T15:57:19;2.35;;;1.05;;
77821;SDS011;67012;53.712;10.728;2023-02-28T15:59:55;2.75;;;1.13;;
77821;SDS011;67012;53.712;10.728;2023-02-28T16:02:25;1.35;;;1.00;;
77821;SDS011;67012;53.712;10.728;2023-02-28T16:04:55;2.78;;;1.13;;
77821;SDS011;67012;53.712;10.728;2023-02-28T16:07:21;2.50;;;1.00;;
77821;SDS011;67012;53.712;10.728;2023-02-28T16:09:46;3.23;;;1.10;;
77821;SDS011;67012;53.712;10.728;2023-02-28T16:12:12;1.85;;;1.10;;
77821;SDS011;67012;53.712;10.728;2023-02-28T16:14:38;3.45;;;0.70;;
77821;SDS011;67012;53.712;10.728;2023-02-28T16:17:04;3.30;;;1.50;;
77821;SDS011;67012;53.712;10.728;2023-02-28T16:19:30;2.50;;;1.92;;
77821;SDS011;67012;53.712;10.728;2023-02-28T16:21:55;3.38;;;2.20;;
77821;SDS011;67012;53.712;10.728;2023-02-28T16:24:21;2.20;;;2.00;;
77821;SDS011;67012;53.712;10.728;2023-02-28T16:26:47;3.00;;;2.13;;
77821;SDS011;67012;53.712;10.728;2023-02-28T16:29:18;5.22;;;3.47;;
77821;SDS011;67012;53.712;10.728;2023-02-28T16:31:45;6.38;;;3.65;;
77821;SDS011;67012;53.712;10.728;2023-02-28T16:34:10;3.07;;;2.57;;
77821;SDS011;67012;53.712;10.728;2023-02-28T16:36:35;3.23;;;2.20;;
77821;SDS011;67012;53.712;10.728;2023-02-28T16:39:00;2.83;;;2.10;;
77821;SDS011;67012;53.712;10.728;2023-02-28T16:41:27;2.55;;;1.83;;
77821;SDS011;67012;53.712;10.728;2023-02-28T16:43:54;3.60;;;2.22;;
77821;SDS011;67012;53.712;10.728;2023-02-28T16:46:23;2.30;;;2.10;;
77821;SDS011;67012;53.712;10.728;2023-02-28T16:48:49;3.13;;;2.10;;
77821;SDS011;67012;53.712;10.728;2023-02-28T16:51:16;4.15;;;2.10;;
77821;SDS011;67012;53.712;10.728;2023-02-28T16:53:42;2.28;;;1.67;;
77821;SDS011;67012;53.712;10.728;2023-02-28T16:56:13;3.13;;;2.30;;
77821;SDS011;67012;53.712;10.728;2023-02-28T16:58:39;2.38;;;1.90;;
77821;SDS011;67012;53.712;10.728;2023-02-28T17:01:05;3.03;;;1.30;;
77821;SDS011;67012;53.712;10.728;2023-02-28T17:03:30;2.77;;;1.57;;
77821;SDS011;67012;53.712;10.728;2023-02-28T17:05:55;3.73;;;2.27;;
77821;SDS011;67012;53.712;10.728;2023-02-28T17:08:21;7.30;;;3.25;;
77821;SDS011;67012;53.712;10.728;2023-02-28T17:10:46;7.60;;;3.27;;
77821;SDS011;67012;53.712;10.728;2023-02-28T17:13:11;8.40;;;3.53;;
77821;SDS011;67012;53.712;10.728;2023-02-28T17:15:36;10.40;;;4.80;;
77821;SDS011;67012;53.712;10.728;2023-02-28T17:18:02;13.77;;;6.75;;
77821;SDS011;67012;53.712;10.728;2023-02-28T17:20:27;9.73;;;5.32;;
77821;SDS011;67012;53.712;10.728;2023-02-28T17:22:53;10.88;;;5.55;;
77821;SDS011;67012;53.712;10.728;2023-02-28T17:25:19;9.40;;;4.47;;
77821;SDS011;67012;53.712;10.728;2023-02-28T17:27:44;4.05;;;2.72;;
77821;SDS011;67012;53.712;10.728;2023-02-28T17:30:19;4.88;;;3.00;;
77821;SDS011;67012;53.712;10.728;2023-02-28T17:32:45;5.03;;;2.65;;
77821;SDS011;67012;53.712;10.728;2023-02-28T17:35:11;24.85;;;12.05;;
77821;SDS011;67012;53.712;10.728;2023-02-28T17:37:36;7.95;;;4.35;;
77821;SDS011;67012;53.712;10.728;2023-02-28T17:40:01;4.90;;;2.60;;
77821;SDS011;67012;53.712;10.728;2023-02-28T17:42:27;6.43;;;3.05;;
77821;SDS011;67012;53.712;10.728;2023-02-28T17:44:52;4.37;;;2.10;;
77821;SDS011;67012;53.712;10.728;2023-02-28T17:47:18;4.37;;;2.67;;
77821;SDS011;67012;53.712;10.728;2023-02-28T17:49:43;4.70;;;3.15;;
77821;SDS011;67012;53.712;10.728;2023-02-28T17:52:09;4.35;;;2.05;;
77821;SDS011;67012;53.712;10.728;2023-02-28T17:54:34;3.37;;;2.10;;
77821;SDS011;67012;53.712;10.728;2023-02-28T17:56:59;2.97;;;1.80;;
77821;SDS011;67012;53.712;10.728;2023-02-28T17:59:25;2.83;;;1.90;;
77821;SDS011;67012;53.712;10.728;2023-02-28T18:01:50;1.50;;;1.20;;
77821;SDS011;67012;53.712;10.728;2023-02-28T18:04:15;2.23;;;1.30;;
77821;SDS011;67012;53.712;10.728;2023-02-28T18:06:41;2.00;;;1.20;;
77821;SDS011;67012;53.712;10.728;2023-02-28T18:09:18;3.80;;;1.98;;
